createdAt,value
2022-11-24T00:00:04.120Z,995.83
2022-11-24T00:01:04.129Z,995.83
2022-11-24T00:02:04.193Z,995.84
2022-11-24T00:03:04.215Z,995.84
2022-11-24T00:04:04.078Z,995.85
2022-11-24T00:05:04.060Z,995.86
2022-11-24T00:06:04.075Z,995.86
2022-11-24T00:07:04.063Z,995.87
2022-11-24T00:08:04.040Z,995.91
2022-11-24T00:09:04.037Z,995.88
2022-11-24T00:10:04.033Z,995.87
2022-11-24T00:12:20.373Z,995.84
2022-11-24T00:13:27.361Z,995.83
2022-11-24T00:15:20.851Z,995.88
2022-11-24T00:16:21.886Z,995.91
2022-11-24T00:17:21.864Z,995.91
2022-11-24T00:18:21.818Z,995.92
2022-11-24T00:19:21.794Z,995.94
2022-11-24T00:20:21.825Z,995.92
2022-11-24T00:21:21.782Z,995.90
2022-11-24T00:22:21.777Z,995.90
2022-11-24T00:23:21.774Z,995.90
2022-11-24T00:24:21.759Z,995.92
2022-11-24T00:25:21.740Z,995.95
2022-11-24T00:26:21.732Z,995.93
2022-11-24T00:27:21.718Z,995.92
2022-11-24T00:28:21.715Z,995.90
2022-11-24T00:29:21.738Z,995.93
2022-11-24T00:30:21.709Z,995.95
2022-11-24T00:31:21.810Z,995.93
2022-11-24T00:32:21.682Z,995.93
2022-11-24T00:33:21.648Z,995.93
2022-11-24T00:34:21.652Z,995.94
2022-11-24T00:35:21.653Z,995.96
2022-11-24T00:36:21.623Z,995.98
2022-11-24T00:37:21.610Z,996.03
2022-11-24T00:38:21.628Z,996.06
2022-11-24T00:39:21.592Z,996.08
2022-11-24T00:40:21.590Z,996.09
2022-11-24T00:41:21.607Z,996.10
2022-11-24T00:42:21.583Z,996.12
2022-11-24T00:43:21.553Z,996.13
2022-11-24T00:44:21.574Z,996.15
2022-11-24T00:45:21.524Z,996.17
2022-11-24T00:46:21.599Z,996.21
2022-11-24T00:47:21.708Z,996.24
2022-11-24T00:48:21.502Z,996.28
2022-11-24T00:49:21.487Z,996.29
2022-11-24T00:50:21.495Z,996.29
2022-11-24T00:51:21.471Z,996.27
2022-11-24T00:52:21.466Z,996.27
2022-11-24T00:53:21.447Z,996.27
2022-11-24T00:54:21.436Z,996.27
2022-11-24T00:55:21.438Z,996.29
2022-11-24T00:56:21.423Z,996.27
2022-11-24T00:57:21.429Z,996.27
2022-11-24T00:58:21.401Z,996.25
2022-11-24T00:59:21.371Z,996.26
2022-11-24T01:00:21.395Z,996.28
2022-11-24T01:01:21.496Z,996.30
2022-11-24T01:02:21.403Z,996.33
2022-11-24T01:03:21.339Z,996.38
2022-11-24T01:04:21.339Z,996.41
2022-11-24T01:05:21.324Z,996.42
2022-11-24T01:06:21.303Z,996.42
2022-11-24T01:07:21.435Z,996.47
2022-11-24T01:08:21.310Z,996.46
2022-11-24T01:09:21.269Z,996.51
2022-11-24T01:10:21.270Z,996.50
2022-11-24T01:11:21.254Z,996.50
2022-11-24T01:12:21.244Z,996.55
2022-11-24T01:13:21.265Z,996.53
2022-11-24T01:14:21.235Z,996.49
2022-11-24T01:15:21.215Z,996.49
2022-11-24T01:16:21.262Z,996.47
2022-11-24T01:17:21.177Z,996.49
2022-11-24T01:18:21.183Z,996.49
2022-11-24T01:19:21.181Z,996.52
2022-11-24T01:20:21.153Z,996.51
2022-11-24T01:21:21.155Z,996.52
2022-11-24T01:22:21.130Z,996.53
2022-11-24T01:23:21.126Z,996.55
2022-11-24T01:24:21.122Z,996.54
2022-11-24T01:25:21.120Z,996.56
2022-11-24T01:26:21.096Z,996.58
2022-11-24T01:27:21.104Z,996.59
2022-11-24T01:28:21.080Z,996.63
2022-11-24T01:29:21.061Z,996.66
2022-11-24T01:30:21.053Z,996.67
2022-11-24T01:31:21.143Z,996.68
2022-11-24T01:32:21.043Z,996.67
2022-11-24T01:33:21.018Z,996.67
2022-11-24T01:34:21.002Z,996.69
2022-11-24T01:35:21.000Z,996.68
2022-11-24T01:36:20.992Z,996.67
2022-11-24T01:37:21.005Z,996.69
2022-11-24T01:38:20.981Z,996.70
2022-11-24T01:39:20.951Z,996.73
2022-11-24T01:40:20.953Z,996.72
2022-11-24T01:41:20.948Z,996.73
2022-11-24T01:42:20.938Z,996.77
2022-11-24T01:43:20.912Z,996.79
2022-11-24T01:44:20.911Z,996.79
2022-11-24T01:45:20.899Z,996.79
2022-11-24T01:46:20.956Z,996.79
2022-11-24T01:47:20.895Z,996.79
2022-11-24T01:48:24.474Z,996.79
2022-11-24T01:49:20.865Z,996.79
2022-11-24T01:50:20.837Z,996.79
2022-11-24T01:51:20.839Z,996.78
2022-11-24T01:52:20.823Z,996.78
2022-11-24T01:53:20.824Z,996.78
2022-11-24T01:54:20.825Z,996.78
2022-11-24T01:55:20.806Z,996.80
2022-11-24T01:56:20.792Z,996.81
2022-11-24T01:57:20.787Z,996.80
2022-11-24T01:58:20.830Z,996.82
2022-11-24T01:59:20.745Z,996.82
2022-11-24T02:00:20.766Z,996.81
2022-11-24T02:01:20.817Z,996.85
2022-11-24T02:02:20.751Z,996.85
2022-11-24T02:03:20.709Z,996.86
2022-11-24T02:04:20.704Z,996.86
2022-11-24T02:05:20.693Z,996.89
2022-11-24T02:06:20.691Z,996.89
2022-11-24T02:07:20.729Z,996.88
2022-11-24T02:08:20.668Z,996.89
2022-11-24T02:09:22.203Z,996.91
2022-11-24T06:00:56.475Z,998.18
2022-11-24T06:01:57.587Z,998.21
2022-11-24T06:02:57.565Z,998.20
2022-11-24T06:03:57.435Z,998.23
2022-11-24T06:04:57.415Z,998.21
2022-11-24T06:05:57.429Z,998.23
2022-11-24T06:06:57.384Z,998.23
2022-11-24T06:07:57.522Z,998.25
2022-11-24T06:08:57.372Z,998.23
2022-11-24T06:09:57.384Z,998.25
2022-11-24T06:10:57.366Z,998.22
2022-11-24T06:11:57.362Z,998.22
2022-11-24T06:12:57.327Z,998.21
2022-11-24T06:13:57.468Z,998.28
2022-11-24T06:14:57.324Z,998.25
2022-11-24T06:15:57.324Z,998.24
2022-11-24T06:17:03.323Z,998.25
2022-11-24T06:17:57.312Z,998.26
2022-11-24T06:18:57.275Z,998.26
2022-11-24T06:19:57.270Z,998.26
2022-11-24T06:21:10.279Z,998.29
2022-11-24T06:21:57.233Z,998.30
2022-11-24T06:22:57.235Z,998.29
2022-11-24T06:23:57.211Z,998.31
2022-11-24T06:24:57.249Z,998.35
2022-11-24T06:25:57.198Z,998.37
2022-11-24T06:26:57.278Z,998.37
2022-11-24T06:27:57.173Z,998.40
2022-11-24T06:28:57.170Z,998.41
2022-11-24T06:29:57.175Z,998.41
2022-11-24T06:30:57.199Z,998.40
2022-11-24T06:31:57.127Z,998.42
2022-11-24T06:32:57.102Z,998.43
2022-11-24T06:33:57.087Z,998.46
2022-11-24T06:34:57.055Z,998.48
2022-11-24T06:35:57.033Z,998.52
2022-11-24T06:36:57.028Z,998.51
2022-11-24T06:37:57.039Z,998.50
2022-11-24T06:38:57.010Z,998.50
2022-11-24T06:39:57.023Z,998.48
2022-11-24T06:40:57.000Z,998.55
2022-11-24T06:41:56.965Z,998.52
2022-11-24T06:42:57.011Z,998.52
2022-11-24T06:43:56.948Z,998.53
2022-11-24T06:44:56.975Z,998.55
2022-11-24T06:45:56.983Z,998.55
2022-11-24T06:46:56.937Z,998.55
2022-11-24T06:47:56.899Z,998.54
2022-11-24T06:48:56.905Z,998.53
2022-11-24T06:49:56.919Z,998.54
2022-11-24T06:50:56.903Z,998.54
2022-11-24T06:51:56.872Z,998.54
2022-11-24T06:52:56.874Z,998.53
2022-11-24T06:53:56.842Z,998.53
2022-11-24T06:54:56.855Z,998.55
2022-11-24T06:55:56.858Z,998.56
2022-11-24T06:56:56.818Z,998.61
2022-11-24T06:57:56.803Z,998.57
2022-11-24T06:58:56.800Z,998.57
2022-11-24T06:59:56.779Z,998.62
2022-11-24T07:00:56.818Z,998.60
2022-11-24T07:01:56.778Z,998.62
2022-11-24T07:02:56.838Z,998.64
2022-11-24T07:03:56.734Z,998.65
2022-11-24T07:04:56.738Z,998.67
2022-11-24T07:05:56.714Z,998.68
2022-11-24T07:06:56.745Z,998.70
2022-11-24T07:07:56.747Z,998.68
2022-11-24T07:08:56.689Z,998.69
2022-11-24T07:09:56.712Z,998.70
2022-11-24T07:10:56.670Z,998.70
2022-11-24T07:11:56.683Z,998.67
2022-11-24T07:12:56.656Z,998.69
2022-11-24T07:13:59.877Z,998.68
2022-11-24T07:14:56.649Z,998.69
2022-11-24T07:15:56.634Z,998.73
2022-11-24T07:16:56.805Z,998.77
2022-11-24T07:17:56.586Z,998.77
2022-11-24T07:18:56.613Z,998.77
2022-11-24T07:19:56.567Z,998.81
2022-11-24T07:20:56.611Z,998.82
2022-11-24T07:21:56.555Z,998.82
2022-11-24T07:22:56.560Z,998.82
2022-11-24T07:23:56.526Z,998.81
2022-11-24T07:24:56.532Z,998.82
2022-11-24T07:25:56.500Z,998.84
2022-11-24T07:26:56.545Z,998.83
2022-11-24T07:27:56.491Z,998.86
2022-11-24T07:28:56.500Z,998.87
2022-11-24T07:29:56.467Z,998.90
2022-11-24T07:30:56.464Z,998.90
2022-11-24T07:32:00.722Z,998.91
2022-11-24T07:32:56.460Z,998.91
2022-11-24T07:33:56.440Z,998.94
2022-11-24T07:34:56.415Z,998.92
2022-11-24T07:35:56.425Z,998.93
2022-11-24T07:36:56.416Z,998.91
2022-11-24T07:37:56.368Z,998.95
2022-11-24T07:38:56.405Z,998.98
2022-11-24T07:39:56.370Z,998.96
2022-11-24T07:40:56.354Z,999.02
2022-11-24T07:41:56.376Z,999.02
2022-11-24T07:42:56.348Z,999.07
2022-11-24T07:43:56.354Z,999.07
2022-11-24T07:44:56.319Z,999.12
2022-11-24T07:45:56.396Z,999.14
2022-11-24T07:46:56.307Z,999.14
2022-11-24T07:47:56.296Z,999.14
2022-11-24T07:48:56.295Z,999.11
2022-11-24T07:49:56.613Z,999.12
2022-11-24T07:50:56.568Z,999.14
2022-11-24T07:51:56.230Z,999.15
2022-11-24T07:52:56.249Z,999.12
2022-11-24T07:53:56.268Z,999.14
2022-11-24T07:54:56.243Z,999.12
2022-11-24T07:55:56.207Z,999.13
2022-11-24T07:56:56.358Z,999.16
2022-11-24T07:57:56.156Z,999.15
2022-11-24T07:58:56.239Z,999.16
2022-11-24T07:59:56.164Z,999.16
2022-11-24T08:00:56.137Z,999.17
2022-11-24T08:01:56.234Z,999.19
2022-11-24T08:02:56.124Z,999.20
2022-11-24T08:03:56.171Z,999.23
2022-11-24T08:04:56.109Z,999.24
2022-11-24T08:06:22.466Z,999.27
2022-11-24T08:06:56.110Z,999.30
2022-11-24T08:07:56.155Z,999.30
2022-11-24T08:08:56.072Z,999.34
2022-11-24T08:09:56.078Z,999.35
2022-11-24T08:10:56.059Z,999.39
2022-11-24T08:11:56.038Z,999.35
2022-11-24T08:12:56.034Z,999.37
2022-11-24T08:13:55.994Z,999.40
2022-11-24T08:14:56.031Z,999.37
2022-11-24T08:15:55.989Z,999.39
2022-11-24T08:16:56.081Z,999.42
2022-11-24T08:17:55.956Z,999.40
2022-11-24T08:18:55.998Z,999.42
2022-11-24T08:19:55.945Z,999.45
2022-11-24T08:20:55.930Z,999.44
2022-11-24T08:21:55.945Z,999.47
2022-11-24T08:22:55.909Z,999.45
2022-11-24T08:23:55.886Z,999.49
2022-11-24T08:24:55.928Z,999.49
2022-11-24T08:25:57.143Z,999.52
2022-11-24T08:26:55.905Z,999.55
2022-11-24T08:27:55.866Z,999.54
2022-11-24T08:28:55.889Z,999.54
2022-11-24T08:29:55.847Z,999.55
2022-11-24T08:30:55.856Z,999.56
2022-11-24T08:31:55.901Z,999.54
2022-11-24T08:32:55.848Z,999.52
2022-11-24T08:33:56.725Z,999.50
2022-11-24T08:34:59.594Z,999.50
2022-11-24T08:35:55.842Z,999.54
2022-11-24T08:36:55.834Z,999.55
2022-11-24T08:38:00.311Z,999.56
2022-11-24T08:38:55.814Z,999.60
2022-11-24T08:39:55.731Z,999.63
2022-11-24T08:40:55.733Z,999.67
2022-11-24T08:41:55.727Z,999.66
2022-11-24T08:42:55.725Z,999.72
2022-11-24T08:43:55.720Z,999.73
2022-11-24T08:44:59.065Z,999.71
2022-11-24T08:45:55.699Z,999.73
2022-11-24T08:46:55.678Z,999.71
2022-11-24T08:47:55.651Z,999.71
2022-11-24T08:48:55.690Z,999.70
2022-11-24T08:49:55.628Z,999.72
2022-11-24T08:50:55.636Z,999.75
2022-11-24T08:51:55.584Z,999.74
2022-11-24T08:52:55.594Z,999.77
2022-11-24T08:53:55.586Z,999.81
2022-11-24T08:54:55.584Z,999.82
2022-11-24T08:55:55.591Z,999.82
2022-11-24T08:56:55.575Z,999.88
2022-11-24T08:57:55.527Z,999.86
2022-11-24T08:58:55.706Z,999.90
2022-11-24T08:59:55.517Z,999.85
2022-11-24T09:00:55.634Z,999.82
2022-11-24T09:01:55.594Z,999.79
2022-11-24T09:02:55.500Z,999.75
2022-11-24T09:03:55.570Z,999.79
2022-11-24T09:04:55.501Z,999.77
2022-11-24T09:05:55.462Z,999.80
2022-11-24T09:06:55.503Z,999.86
2022-11-24T09:07:55.473Z,999.84
2022-11-24T09:08:55.443Z,999.83
2022-11-24T09:09:55.425Z,999.89
2022-11-24T09:10:55.423Z,999.93
2022-11-24T09:11:55.380Z,999.91
2022-11-24T09:12:55.417Z,999.91
2022-11-24T09:13:55.367Z,999.91
2022-11-24T09:14:55.370Z,999.92
2022-11-24T09:15:55.335Z,999.93
2022-11-24T09:16:55.390Z,999.93
2022-11-24T09:17:55.328Z,999.96
2022-11-24T09:18:55.339Z,999.94
2022-11-24T09:19:55.321Z,999.96
2022-11-24T09:20:55.292Z,999.97
2022-11-24T09:21:55.304Z,999.95
2022-11-24T09:22:55.288Z,999.97
2022-11-24T09:23:55.268Z,999.96
2022-11-24T09:24:55.263Z,999.98
2022-11-24T09:25:55.255Z,1000.00
2022-11-24T09:26:55.243Z,1000.04
2022-11-24T09:27:55.250Z,1000.00
2022-11-24T09:28:55.235Z,1000.01
2022-11-24T09:29:55.217Z,1000.02
2022-11-24T09:30:55.337Z,1000.03
2022-11-24T09:31:55.203Z,1000.08
2022-11-24T09:32:55.160Z,1000.10
2022-11-24T09:33:55.175Z,1000.10
2022-11-24T09:34:55.177Z,1000.09
2022-11-24T09:35:55.154Z,1000.10
2022-11-24T09:36:55.149Z,1000.11
2022-11-24T09:37:55.124Z,1000.14
2022-11-24T09:38:55.139Z,1000.15
2022-11-24T09:39:55.133Z,1000.14
2022-11-24T09:40:55.095Z,1000.12
2022-11-24T09:41:55.094Z,1000.14
2022-11-24T09:42:55.096Z,1000.17
2022-11-24T09:43:55.239Z,1000.17
2022-11-24T09:44:55.062Z,1000.20
2022-11-24T09:46:05.525Z,1000.24
2022-11-24T09:46:55.082Z,1000.24
2022-11-24T09:47:55.011Z,1000.23
2022-11-24T09:48:55.002Z,1000.26
2022-11-24T09:49:54.977Z,1000.29
2022-11-24T09:50:55.002Z,1000.28
2022-11-24T09:51:55.010Z,1000.29
2022-11-24T09:52:55.075Z,1000.30
2022-11-24T09:53:54.955Z,1000.27
2022-11-24T09:54:54.938Z,1000.27
2022-11-24T09:55:54.911Z,1000.28
2022-11-24T09:56:54.923Z,1000.30
2022-11-24T09:57:54.929Z,1000.33
2022-11-24T09:58:54.899Z,1000.35
2022-11-24T09:59:54.929Z,1000.36
2022-11-24T10:00:54.877Z,1000.31
2022-11-24T10:01:54.927Z,1000.35
2022-11-24T10:02:54.849Z,1000.33
2022-11-24T10:03:54.867Z,1000.30
2022-11-24T10:04:54.981Z,1000.30
2022-11-24T10:05:54.807Z,1000.33
2022-11-24T10:06:54.857Z,1000.32
2022-11-24T10:07:54.846Z,1000.36
2022-11-24T10:08:54.823Z,1000.36
2022-11-24T10:09:54.776Z,1000.34
2022-11-24T10:10:54.780Z,1000.37
2022-11-24T10:11:54.750Z,1000.41
2022-11-24T10:12:54.772Z,1000.42
2022-11-24T10:13:54.747Z,1000.44
2022-11-24T10:14:54.746Z,1000.44
2022-11-24T10:15:54.776Z,1000.44
2022-11-24T10:16:54.717Z,1000.41
2022-11-24T10:17:54.689Z,1000.42
2022-11-24T10:18:54.717Z,1000.44
2022-11-24T10:19:54.664Z,1000.45
2022-11-24T10:20:54.716Z,1000.47
2022-11-24T10:21:54.669Z,1000.43
2022-11-24T10:22:54.653Z,1000.49
2022-11-24T10:23:54.759Z,1000.48
2022-11-24T10:24:54.976Z,1000.51
2022-11-24T10:25:54.617Z,1000.48
2022-11-24T10:26:54.607Z,1000.53
2022-11-24T10:27:54.596Z,1000.53
2022-11-24T10:28:54.591Z,1000.51
2022-11-24T10:29:54.586Z,1000.55
2022-11-24T10:30:54.658Z,1000.56
2022-11-24T10:31:54.696Z,1000.57
2022-11-24T10:32:54.526Z,1000.59
2022-11-24T10:33:54.536Z,1000.58
2022-11-24T10:34:54.528Z,1000.62
2022-11-24T10:35:54.512Z,1000.62
2022-11-24T10:36:54.527Z,1000.62
2022-11-24T10:37:54.485Z,1000.65
2022-11-24T10:38:54.484Z,1000.65
2022-11-24T10:39:59.643Z,1000.67
2022-11-24T10:40:57.481Z,1000.70
2022-11-24T10:41:54.468Z,1000.73
2022-11-24T10:42:54.427Z,1000.71
2022-11-24T10:43:54.419Z,1000.78
2022-11-24T10:44:54.424Z,1000.76
2022-11-24T10:45:54.459Z,1000.75
2022-11-24T10:46:54.434Z,1000.72
2022-11-24T10:47:54.389Z,1000.73
2022-11-24T10:48:54.402Z,1000.70
2022-11-24T10:49:54.378Z,1000.71
2022-11-24T10:50:54.384Z,1000.68
2022-11-24T10:51:54.341Z,1000.66
2022-11-24T10:52:54.323Z,1000.69
2022-11-24T10:53:54.338Z,1000.67
2022-11-24T10:54:54.301Z,1000.67
2022-11-24T10:55:54.299Z,1000.69
2022-11-24T10:56:55.280Z,1000.69
2022-11-24T10:57:54.277Z,1000.68
2022-11-24T10:58:54.244Z,1000.67
2022-11-24T10:59:54.246Z,1000.68
2022-11-24T11:00:54.283Z,1000.71
2022-11-24T11:01:54.312Z,1000.74
2022-11-24T11:02:54.333Z,1000.73
2022-11-24T11:03:54.228Z,1000.74
2022-11-24T11:04:54.211Z,1000.73
2022-11-24T11:05:54.217Z,1000.78
2022-11-24T11:06:54.182Z,1000.81
2022-11-24T11:07:54.230Z,1000.82
2022-11-24T11:08:54.142Z,1000.78
2022-11-24T11:09:54.254Z,1000.80
2022-11-24T11:10:54.145Z,1000.79
2022-11-24T11:11:54.150Z,1000.79
2022-11-24T11:12:54.099Z,1000.77
2022-11-24T11:13:59.769Z,1000.81
2022-11-24T11:14:54.080Z,1000.84
2022-11-24T11:15:54.156Z,1000.79
2022-11-24T11:16:54.060Z,1000.81
2022-11-24T11:17:54.090Z,1000.77
2022-11-24T11:18:54.058Z,1000.80
2022-11-24T11:20:00.390Z,1000.81
2022-11-24T11:20:54.042Z,1000.81
2022-11-24T11:21:54.038Z,1000.81
2022-11-24T11:22:54.022Z,1000.83
2022-11-24T11:23:54.027Z,1000.89
2022-11-24T11:24:53.980Z,1000.89
2022-11-24T11:25:54.002Z,1001.03
2022-11-24T11:26:53.947Z,1000.94
2022-11-24T11:27:53.958Z,1000.92
2022-11-24T11:28:54.025Z,1000.91
2022-11-24T11:34:15.857Z,1000.96
2022-11-24T11:34:53.870Z,1001.03
2022-11-24T11:35:53.868Z,1001.00
2022-11-24T11:36:53.838Z,1001.00
2022-11-24T11:37:53.922Z,1000.97
2022-11-24T11:38:53.852Z,1001.01
2022-11-24T11:39:53.831Z,1001.01
2022-11-24T11:40:53.806Z,1001.02
2022-11-24T11:41:53.835Z,1001.03
2022-11-24T11:43:02.271Z,1001.04
2022-11-24T11:43:53.831Z,1001.06
2022-11-24T11:44:53.797Z,1001.06
2022-11-24T11:45:53.971Z,1001.04
2022-11-24T11:46:55.744Z,1001.07
2022-11-24T11:47:53.750Z,1001.08
2022-11-24T11:48:53.748Z,1001.10
2022-11-24T11:49:53.744Z,1001.11
2022-11-24T11:51:21.725Z,1001.09
2022-11-24T11:51:53.727Z,1001.14
2022-11-24T11:52:53.666Z,1001.07
2022-11-24T11:53:53.923Z,1001.10
2022-11-24T11:54:53.664Z,1001.10
2022-11-24T11:55:53.672Z,1001.08
2022-11-24T11:56:53.678Z,1001.05
2022-11-24T11:57:53.650Z,1001.17
2022-11-24T11:58:53.639Z,1001.08
2022-11-24T11:59:53.652Z,1001.08
2022-11-24T12:00:53.599Z,1001.04
2022-11-24T12:01:53.648Z,1001.08
2022-11-24T12:02:54.261Z,1001.06
2022-11-24T12:03:53.742Z,1001.08
2022-11-24T12:04:53.563Z,1001.03
2022-11-24T12:05:53.552Z,1001.04
2022-11-24T12:06:53.540Z,1001.09
2022-11-24T12:07:53.615Z,1001.11
2022-11-24T12:09:19.243Z,1001.10
2022-11-24T12:09:53.526Z,1001.11
2022-11-24T12:10:53.503Z,1001.15
2022-11-24T12:11:53.513Z,1001.11
2022-11-24T12:12:53.463Z,1001.15
2022-11-24T12:13:53.472Z,1001.17
2022-11-24T12:14:53.483Z,1001.19
2022-11-24T12:15:53.547Z,1001.18
2022-11-24T12:16:59.506Z,1001.24
2022-11-24T12:17:53.426Z,1001.22
2022-11-24T12:18:58.219Z,1001.24
2022-11-24T12:19:53.413Z,1001.29
2022-11-24T12:20:53.394Z,1001.23
2022-11-24T12:21:53.376Z,1001.27
2022-11-24T12:22:53.360Z,1001.29
2022-11-24T12:23:53.357Z,1001.21
2022-11-24T12:24:53.381Z,1001.27
2022-11-24T12:25:53.381Z,1001.29
2022-11-24T12:26:53.318Z,1001.32
2022-11-24T12:27:53.308Z,1001.27
2022-11-24T12:28:53.314Z,1001.29
2022-11-24T12:29:53.309Z,1001.33
2022-11-24T12:30:53.327Z,1001.33
2022-11-24T12:31:53.313Z,1001.32
2022-11-24T12:32:53.287Z,1001.44
2022-11-24T12:33:56.549Z,1001.37
2022-11-24T12:34:53.229Z,1001.38
2022-11-24T12:35:53.283Z,1001.38
2022-11-24T12:36:53.204Z,1001.39
2022-11-24T12:37:53.204Z,1001.41
2022-11-24T12:38:53.202Z,1001.41
2022-11-24T12:39:53.191Z,1001.45
2022-11-24T12:40:58.079Z,1001.43
2022-11-24T12:41:53.172Z,1001.42
2022-11-24T12:42:53.153Z,1001.42
2022-11-24T12:43:53.342Z,1001.44
2022-11-24T12:44:53.144Z,1001.41
2022-11-24T12:45:53.121Z,1001.41
2022-11-24T12:46:53.135Z,1001.46
2022-11-24T12:47:53.112Z,1001.42
2022-11-24T12:48:53.097Z,1001.40
2022-11-24T12:49:53.081Z,1001.41
2022-11-24T12:50:53.057Z,1001.42
2022-11-24T12:51:53.073Z,1001.42
2022-11-24T12:52:58.624Z,1001.44
2022-11-24T12:53:53.058Z,1001.46
2022-11-24T12:54:53.059Z,1001.45
2022-11-24T12:55:53.019Z,1001.47
2022-11-24T12:56:52.986Z,1001.47
2022-11-24T12:57:52.990Z,1001.49
2022-11-24T12:58:52.968Z,1001.45
2022-11-24T12:59:52.975Z,1001.46
2022-11-24T13:00:52.975Z,1001.45
2022-11-24T13:01:53.014Z,1001.46
2022-11-24T13:02:53.120Z,1001.48
2022-11-24T13:03:52.929Z,1001.49
2022-11-24T13:04:52.901Z,1001.50
2022-11-24T13:05:52.908Z,1001.50
2022-11-24T13:06:52.903Z,1001.48
2022-11-24T13:07:52.952Z,1001.49
2022-11-24T13:08:52.858Z,1001.47
2022-11-24T13:09:52.860Z,1001.48
2022-11-24T13:10:57.684Z,1001.52
2022-11-24T13:11:52.904Z,1001.51
2022-11-24T13:12:52.826Z,1001.53
2022-11-24T13:13:52.832Z,1001.53
2022-11-24T13:14:52.801Z,1001.50
2022-11-24T13:16:13.113Z,1001.49
2022-11-24T13:17:27.517Z,1001.49
2022-11-24T13:18:08.672Z,1001.51
2022-11-24T13:18:52.823Z,1001.49
2022-11-24T13:19:52.767Z,1001.51
2022-11-24T13:20:52.743Z,1001.50
2022-11-24T13:21:52.765Z,1001.53
2022-11-24T13:22:52.727Z,1001.53
2022-11-24T13:23:52.726Z,1001.58
2022-11-24T13:24:52.693Z,1001.55
2022-11-24T13:25:52.700Z,1001.56
2022-11-24T13:26:52.676Z,1001.59
2022-11-24T13:27:52.711Z,1001.58
2022-11-24T13:29:03.613Z,1001.57
2022-11-24T13:29:52.681Z,1001.60
2022-11-24T13:30:52.646Z,1001.61
2022-11-24T13:31:52.709Z,1001.61
2022-11-24T13:32:52.710Z,1001.63
2022-11-24T13:33:52.620Z,1001.64
2022-11-24T13:34:52.608Z,1001.66
2022-11-24T13:35:52.620Z,1001.68
2022-11-24T13:36:52.575Z,1001.70
2022-11-24T13:37:52.595Z,1001.73
2022-11-24T13:38:52.564Z,1001.73
2022-11-24T13:39:52.555Z,1001.71
2022-11-24T13:41:21.060Z,1001.75
2022-11-24T13:41:52.552Z,1001.74
2022-11-24T13:42:52.506Z,1001.73
2022-11-24T13:43:53.225Z,1001.74
2022-11-24T13:44:52.478Z,1001.76
2022-11-24T13:45:52.492Z,1001.75
2022-11-24T13:46:52.504Z,1001.75
2022-11-24T13:47:52.464Z,1001.77
2022-11-24T13:48:52.459Z,1001.73
2022-11-24T13:49:52.444Z,1001.75
2022-11-24T13:50:52.414Z,1001.72
2022-11-24T13:51:52.432Z,1001.72
2022-11-24T13:52:52.403Z,1001.74
2022-11-24T13:53:52.397Z,1001.74
2022-11-24T13:54:52.387Z,1001.74
2022-11-24T13:55:52.371Z,1001.73
2022-11-24T13:56:52.387Z,1001.72
2022-11-24T13:57:52.359Z,1001.75
2022-11-24T13:58:52.331Z,1001.70
2022-11-24T13:59:52.336Z,1001.77
2022-11-24T14:00:56.953Z,1001.77
2022-11-24T14:01:52.404Z,1001.77
2022-11-24T14:02:52.388Z,1001.79
2022-11-24T14:04:28.054Z,1001.86
2022-11-24T14:04:52.396Z,1001.78
2022-11-24T14:05:52.273Z,1001.78
2022-11-24T14:06:52.276Z,1001.76
2022-11-24T14:07:52.329Z,1001.75
2022-11-24T14:08:52.278Z,1001.72
2022-11-24T14:09:52.286Z,1001.73
2022-11-24T14:10:52.205Z,1001.71
2022-11-24T14:11:52.214Z,1001.70
2022-11-24T14:12:52.182Z,1001.69
2022-11-24T14:13:52.191Z,1001.68
2022-11-24T14:14:52.185Z,1001.66
2022-11-24T14:15:52.201Z,1001.66
2022-11-24T14:16:52.135Z,1001.65
2022-11-24T14:17:52.161Z,1001.64
2022-11-24T14:18:52.120Z,1001.64
2022-11-24T14:19:52.149Z,1001.64
2022-11-24T14:20:52.092Z,1001.64
2022-11-24T14:21:52.128Z,1001.67
2022-11-24T14:22:52.114Z,1001.68
2022-11-24T14:23:52.095Z,1001.70
2022-11-24T14:24:52.068Z,1001.74
2022-11-24T14:25:52.089Z,1001.73
2022-11-24T14:26:52.036Z,1001.74
2022-11-24T14:27:52.120Z,1001.76
2022-11-24T14:28:52.064Z,1001.77
2022-11-24T14:29:54.179Z,1001.77
2022-11-24T14:30:52.009Z,1001.78
2022-11-24T14:31:52.065Z,1001.78
2022-11-24T14:32:51.970Z,1001.80
2022-11-24T14:33:51.988Z,1001.82
2022-11-24T14:34:52.220Z,1001.82
2022-11-24T14:35:52.015Z,1001.84
2022-11-24T14:36:51.938Z,1001.80
2022-11-24T14:37:51.949Z,1001.80
2022-11-24T14:38:51.924Z,1001.81
2022-11-24T14:39:51.911Z,1001.80
2022-11-24T14:40:51.918Z,1001.79
2022-11-24T14:41:51.885Z,1001.78
2022-11-24T14:42:51.892Z,1001.76
2022-11-24T14:43:51.847Z,1001.78
2022-11-24T14:44:51.854Z,1001.76
2022-11-24T14:45:51.835Z,1001.76
2022-11-24T14:46:51.931Z,1001.78
2022-11-24T14:47:51.806Z,1001.78
2022-11-24T14:48:51.842Z,1001.80
2022-11-24T14:49:51.829Z,1001.80
2022-11-24T14:50:51.819Z,1001.79
2022-11-24T14:51:51.766Z,1001.79
2022-11-24T14:52:51.794Z,1001.77
2022-11-24T14:53:51.787Z,1001.80
2022-11-24T14:54:51.741Z,1001.83
2022-11-24T14:55:51.731Z,1001.81
2022-11-24T14:56:51.732Z,1001.83
2022-11-24T14:57:51.698Z,1001.83
2022-11-24T14:58:51.704Z,1001.83
2022-11-24T14:59:51.726Z,1001.84
2022-11-24T15:00:51.715Z,1001.86
2022-11-24T15:01:51.742Z,1001.86
2022-11-24T15:02:51.676Z,1001.88
2022-11-24T15:03:51.629Z,1001.87
2022-11-24T15:05:02.881Z,1001.89
2022-11-24T15:05:51.667Z,1001.90
2022-11-24T15:06:51.623Z,1001.90
2022-11-24T15:07:51.661Z,1001.92
2022-11-24T15:08:51.639Z,1001.93
2022-11-24T15:09:51.577Z,1001.96
2022-11-24T15:10:51.588Z,1001.96
2022-11-24T15:11:51.554Z,1001.97
2022-11-24T15:12:51.558Z,1001.97
2022-11-24T15:13:51.549Z,1002.01
2022-11-24T15:14:51.558Z,1002.02
2022-11-24T15:15:51.553Z,1002.04
2022-11-24T15:16:51.577Z,1002.03
2022-11-24T15:17:51.493Z,1002.05
2022-11-24T15:18:51.493Z,1002.05
2022-11-24T15:19:51.481Z,1002.05
2022-11-24T15:20:51.508Z,1002.06
2022-11-24T15:21:51.456Z,1002.06
2022-11-24T15:22:51.452Z,1002.06
2022-11-24T15:23:51.423Z,1002.08
2022-11-24T15:24:51.444Z,1002.09
2022-11-24T15:25:51.445Z,1002.11
2022-11-24T15:26:51.408Z,1002.12
2022-11-24T15:27:51.379Z,1002.13
2022-11-24T15:28:51.463Z,1002.13
2022-11-24T15:29:51.364Z,1002.15
2022-11-24T15:30:51.382Z,1002.15
2022-11-24T15:31:53.061Z,1002.15
2022-11-24T15:32:51.344Z,1002.16
2022-11-24T15:33:51.314Z,1002.17
2022-11-24T15:34:51.364Z,1002.16
2022-11-24T15:35:51.294Z,1002.17
2022-11-24T15:36:51.313Z,1002.17
2022-11-24T15:37:51.295Z,1002.18
2022-11-24T15:38:51.286Z,1002.20
2022-11-24T15:39:51.253Z,1002.21
2022-11-24T15:40:51.287Z,1002.21
2022-11-24T15:41:51.231Z,1002.22
2022-11-24T15:42:51.271Z,1002.24
2022-11-24T15:43:51.211Z,1002.28
2022-11-24T15:44:51.221Z,1002.30
2022-11-24T15:45:51.218Z,1002.33
2022-11-24T15:46:51.266Z,1002.34
2022-11-24T15:47:51.189Z,1002.36
2022-11-24T15:48:51.173Z,1002.38
2022-11-24T15:49:51.162Z,1002.39
2022-11-24T15:50:51.151Z,1002.41
2022-11-24T15:51:51.129Z,1002.39
2022-11-24T15:52:51.149Z,1002.41
2022-11-24T15:53:52.473Z,1002.40
2022-11-24T15:54:51.132Z,1002.41
2022-11-24T15:55:51.094Z,1002.42
2022-11-24T15:56:51.105Z,1002.42
2022-11-24T15:57:51.068Z,1002.44
2022-11-24T15:58:51.100Z,1002.47
2022-11-24T15:59:51.045Z,1002.47
2022-11-24T16:00:51.175Z,1002.49
2022-11-24T16:01:51.234Z,1002.49
2022-11-24T16:02:51.045Z,1002.50
2022-11-24T16:03:51.073Z,1002.51
2022-11-24T16:04:51.081Z,1002.52
2022-11-24T16:05:51.058Z,1002.52
2022-11-24T16:06:51.056Z,1002.52
2022-11-24T16:07:51.111Z,1002.53
2022-11-24T16:08:51.031Z,1002.53
2022-11-24T16:09:50.991Z,1002.54
2022-11-24T16:10:51.002Z,1002.56
2022-11-24T16:11:51.001Z,1002.56